createdAt,value
2018-10-16T00:00:41.229Z,1999.90
2018-10-16T00:03:09.227Z,1999.90
2018-10-16T00:05:37.017Z,1999.90
2018-10-16T00:08:04.899Z,1999.90
2018-10-16T00:10:39.275Z,1999.90
2018-10-16T00:13:08.252Z,1999.90
2018-10-16T00:15:36.143Z,1999.90
2018-10-16T00:18:04.456Z,1999.90
2018-10-16T00:20:32.334Z,1999.90
2018-10-16T00:23:00.215Z,1999.90
2018-10-16T00:25:28.139Z,1999.90
2018-10-16T00:27:56.008Z,1999.90
2018-10-16T00:30:23.903Z,1999.90
2018-10-16T00:32:51.775Z,1999.90
2018-10-16T00:35:19.655Z,1999.90
2018-10-16T00:37:47.514Z,1999.90
2018-10-16T00:40:15.386Z,1999.90
2018-10-16T00:42:43.265Z,1999.90
2018-10-16T00:45:11.691Z,1999.90
2018-10-16T00:47:39.820Z,1999.90
2018-10-16T00:50:07.977Z,1999.90
2018-10-16T00:52:36.041Z,1999.90
2018-10-16T00:55:04.294Z,1999.90
2018-10-16T00:57:32.109Z,1999.90
2018-10-16T00:59:59.989Z,1999.90
2018-10-16T01:02:27.871Z,1999.90
2018-10-16T01:04:55.766Z,1999.90
2018-10-16T01:07:23.674Z,1999.90
2018-10-16T01:09:51.571Z,1999.90
2018-10-16T01:12:19.455Z,1999.90
2018-10-16T01:14:47.342Z,1999.90
2018-10-16T01:17:15.197Z,1999.90
2018-10-16T01:19:43.079Z,1999.90
2018-10-16T01:22:10.946Z,1999.90
2018-10-16T01:24:38.842Z,1999.90
2018-10-16T01:27:06.707Z,1999.90
2018-10-16T01:29:34.601Z,1999.90
2018-10-16T01:32:02.483Z,1999.90
2018-10-16T01:34:30.363Z,1999.90
2018-10-16T01:36:58.233Z,1999.90
2018-10-16T01:39:26.094Z,1999.90
2018-10-16T01:41:53.978Z,1999.90
2018-10-16T01:44:21.845Z,1999.90
2018-10-16T01:46:49.714Z,1999.90
2018-10-16T01:49:17.583Z,1999.90
2018-10-16T01:51:45.459Z,1999.90
2018-10-16T01:54:13.331Z,1999.90
2018-10-16T01:56:41.215Z,1999.90
2018-10-16T01:59:09.091Z,1999.90
2018-10-16T02:01:37.079Z,1999.90
2018-10-16T02:04:04.950Z,1999.90
2018-10-16T02:06:32.827Z,1999.90
2018-10-16T02:09:00.685Z,1999.90
2018-10-16T02:11:28.553Z,1999.90
2018-10-16T02:13:56.423Z,1999.90
2018-10-16T02:16:24.310Z,1999.90
2018-10-16T02:18:52.303Z,1999.90
2018-10-16T02:21:20.174Z,1999.90
2018-10-16T02:23:48.044Z,1999.90
2018-10-16T02:26:15.919Z,1999.90
2018-10-16T02:28:43.794Z,1999.90
2018-10-16T02:31:11.691Z,1999.90
2018-10-16T02:33:39.651Z,1999.90
2018-10-16T02:36:07.535Z,1999.90
2018-10-16T02:38:35.415Z,1999.90
2018-10-16T02:41:03.297Z,1999.90
2018-10-16T02:43:31.165Z,1999.90
2018-10-16T02:45:59.042Z,1999.90
2018-10-16T02:48:26.919Z,1999.90
2018-10-16T02:50:54.800Z,1999.90
2018-10-16T02:53:22.673Z,1999.90
2018-10-16T02:55:50.559Z,1999.90
2018-10-16T02:58:18.434Z,1999.90
2018-10-16T03:00:46.306Z,1999.90
2018-10-16T03:03:14.182Z,1999.90
2018-10-16T03:05:42.071Z,1999.90
2018-10-16T03:08:09.944Z,1999.90
2018-10-16T03:10:37.851Z,1999.90
2018-10-16T03:13:05.731Z,1999.90
2018-10-16T03:15:33.602Z,1999.90
2018-10-16T03:18:01.558Z,1999.90
2018-10-16T03:20:29.444Z,1999.90
2018-10-16T03:22:57.318Z,1999.90
2018-10-16T03:25:25.188Z,1999.90
2018-10-16T03:27:53.064Z,1999.90
2018-10-16T03:30:20.968Z,1999.90
2018-10-16T03:32:48.966Z,1999.90
2018-10-16T03:35:16.848Z,1999.90
2018-10-16T03:37:44.727Z,1999.90
2018-10-16T03:40:12.825Z,1999.90
2018-10-16T03:42:41.590Z,1999.90
2018-10-16T03:45:10.807Z,1999.90
2018-10-16T03:47:39.160Z,1999.90
2018-10-16T03:50:07.260Z,1999.90
2018-10-16T03:52:35.219Z,1999.90
2018-10-16T03:55:03.109Z,1999.90
2018-10-16T03:57:31.022Z,1999.90
2018-10-16T03:59:59.128Z,1999.90
2018-10-16T04:02:27.018Z,1999.90
2018-10-16T04:04:54.920Z,1980.23
2018-10-16T04:07:22.915Z,1999.90
2018-10-16T04:09:50.790Z,1999.90
2018-10-16T04:12:18.799Z,1999.90
2018-10-16T04:14:46.690Z,1999.90
2018-10-16T04:17:15.492Z,1999.90
2018-10-16T04:19:43.348Z,1999.90
2018-10-16T04:22:11.215Z,1999.90
2018-10-16T04:24:39.066Z,1999.90
2018-10-16T04:27:06.931Z,1999.90
2018-10-16T04:29:34.791Z,1999.90
2018-10-16T04:32:02.644Z,1999.90
2018-10-16T04:34:30.486Z,1999.90
2018-10-16T04:36:58.344Z,1999.90
2018-10-16T04:39:26.186Z,1999.90
2018-10-16T04:41:54.057Z,1999.90
2018-10-16T04:44:21.907Z,1999.90
2018-10-16T04:46:49.763Z,1999.90
2018-10-16T04:49:17.614Z,1999.90
2018-10-16T04:51:45.474Z,1999.90
2018-10-16T04:54:13.335Z,1999.90
2018-10-16T04:56:41.190Z,1999.90
2018-10-16T04:59:09.050Z,1999.90
2018-10-16T05:01:36.898Z,1999.90
2018-10-16T05:04:04.970Z,1999.90
2018-10-16T05:06:32.780Z,1999.90
2018-10-16T05:09:00.629Z,1999.90
2018-10-16T05:11:28.487Z,1999.90
2018-10-16T05:13:56.346Z,1999.90
2018-10-16T05:16:24.186Z,1999.90
2018-10-16T05:18:52.058Z,1999.90
2018-10-16T05:21:19.945Z,1999.90
2018-10-16T05:23:47.780Z,1999.90
2018-10-16T05:26:15.627Z,1999.90
2018-10-16T05:28:43.491Z,1999.90
2018-10-16T05:31:11.675Z,1999.90
2018-10-16T05:33:39.461Z,1999.90
2018-10-16T05:36:07.547Z,1999.90
2018-10-16T05:38:35.389Z,1999.90
2018-10-16T05:41:03.237Z,1999.90
2018-10-16T05:43:31.100Z,1999.90
2018-10-16T05:45:59.043Z,1999.90
2018-10-16T05:48:26.899Z,1999.90
2018-10-16T05:50:54.746Z,1999.90
2018-10-16T05:53:22.626Z,1999.90
2018-10-16T05:55:54.970Z,1999.90
2018-10-16T05:58:22.828Z,1999.90
2018-10-16T06:00:50.676Z,1999.90
2018-10-16T06:03:18.526Z,1999.90
2018-10-16T06:05:52.957Z,1999.90
2018-10-16T06:08:20.819Z,1999.90
2018-10-16T06:10:48.723Z,1999.90
2018-10-16T06:13:16.542Z,1999.90
2018-10-16T06:15:44.406Z,1100.20
2018-10-16T06:18:12.274Z,1237.53
2018-10-16T06:20:40.115Z,1999.90
2018-10-16T06:23:07.987Z,1999.90
2018-10-16T06:25:35.836Z,1999.90
2018-10-16T06:28:10.223Z,1441.23
2018-10-16T06:30:38.088Z,1979.70
2018-10-16T06:33:05.996Z,1999.90
2018-10-16T06:35:33.831Z,1999.90
2018-10-16T06:38:01.678Z,1999.90
2018-10-16T06:40:29.628Z,1999.90
2018-10-16T06:42:57.410Z,1949.03
2018-10-16T06:45:25.290Z,1145.07
2018-10-16T06:47:53.171Z,1689.37
2018-10-16T06:50:21.013Z,733.57
2018-10-16T06:52:48.866Z,458.60
2018-10-16T06:55:16.766Z,443.83
2018-10-16T06:57:44.593Z,910.47
2018-10-16T07:00:12.457Z,1758.93
2018-10-16T07:02:40.322Z,1817.70
2018-10-16T07:05:08.447Z,1999.90
2018-10-16T07:07:36.315Z,1999.90
2018-10-16T07:10:04.645Z,1999.90
2018-10-16T07:12:32.506Z,1999.90
2018-10-16T07:17:34.660Z,1999.90
2018-10-16T07:20:02.548Z,1999.90
2018-10-16T07:22:30.395Z,1999.90
2018-10-16T07:24:58.258Z,1999.90
2018-10-16T07:27:26.112Z,1901.23
2018-10-16T07:29:54.017Z,1999.90
2018-10-16T07:32:21.871Z,1999.90
2018-10-16T07:34:49.730Z,1999.90
2018-10-16T07:37:17.577Z,1999.90
2018-10-16T07:39:45.450Z,1999.90
2018-10-16T07:42:13.315Z,1999.90
2018-10-16T07:44:41.173Z,1999.90
2018-10-16T07:47:09.117Z,1999.90
2018-10-16T07:49:36.963Z,1999.90
2018-10-16T07:52:04.818Z,1999.90
2018-10-16T07:54:32.688Z,1999.90
2018-10-16T07:57:00.569Z,1999.90
2018-10-16T07:59:28.443Z,1999.90
2018-10-16T08:01:56.355Z,1999.90
2018-10-16T08:04:24.228Z,1999.90
2018-10-16T08:06:52.074Z,1999.90
2018-10-16T08:09:19.930Z,1999.90
2018-10-16T08:11:49.035Z,1999.90
2018-10-16T08:14:17.978Z,1999.90
2018-10-16T08:16:47.228Z,1999.90
2018-10-16T08:19:15.408Z,1999.90
2018-10-16T08:21:43.982Z,1999.90
2018-10-16T08:24:11.854Z,1999.90
2018-10-16T08:26:40.030Z,1999.90
2018-10-16T08:29:08.402Z,1999.90
2018-10-16T08:31:36.349Z,1999.90
2018-10-16T08:34:04.659Z,1999.90
2018-10-16T08:36:32.910Z,1999.90
2018-10-16T08:39:02.399Z,1999.90
2018-10-16T08:41:36.527Z,1999.90
2018-10-16T08:44:10.077Z,1999.90
2018-10-16T08:46:43.639Z,1999.90
2018-10-16T08:49:17.107Z,1999.90
2018-10-16T08:51:50.128Z,1860.67
2018-10-16T08:54:18.135Z,1999.90
2018-10-16T08:56:46.231Z,1900.50
2018-10-16T08:59:14.115Z,1863.07
2018-10-16T09:01:41.974Z,1600.73
2018-10-16T09:04:09.923Z,1999.90
2018-10-16T09:06:37.845Z,1999.90
2018-10-16T09:09:08.432Z,799.90
2018-10-16T09:11:36.294Z,817.93
2018-10-16T09:14:04.293Z,798.43
2018-10-16T09:16:32.107Z,454.37
2018-10-16T09:18:59.966Z,703.93
2018-10-16T09:21:27.814Z,287.00
2018-10-16T09:23:55.661Z,205.70
2018-10-16T09:26:23.546Z,208.33
2018-10-16T09:28:51.427Z,203.00
2018-10-16T09:31:19.284Z,235.93
2018-10-16T09:33:47.130Z,394.67
2018-10-16T09:36:14.975Z,568.40
2018-10-16T09:38:42.828Z,395.30
2018-10-16T09:41:10.674Z,193.03
2018-10-16T09:43:38.516Z,235.33
2018-10-16T09:46:06.363Z,171.97
2018-10-16T09:48:34.215Z,162.87
2018-10-16T09:51:02.063Z,106.83
2018-10-16T09:53:29.915Z,133.00
2018-10-16T09:55:57.757Z,122.23
2018-10-16T09:58:25.764Z,95.87
2018-10-16T10:00:59.210Z,226.53
2018-10-16T10:03:27.019Z,103.80
2018-10-16T10:05:54.951Z,90.93
2018-10-16T10:08:22.809Z,108.30
2018-10-16T10:10:50.659Z,272.67
2018-10-16T10:13:18.544Z,95.43
2018-10-16T10:15:46.400Z,91.30
2018-10-16T10:18:14.234Z,86.23
2018-10-16T10:20:42.076Z,87.07
2018-10-16T10:23:09.978Z,87.43
2018-10-16T10:25:37.799Z,83.53
2018-10-16T10:28:05.682Z,80.60
2018-10-16T10:30:33.551Z,89.03
2018-10-16T10:33:01.430Z,90.63
2018-10-16T10:35:29.326Z,92.13
2018-10-16T10:37:57.178Z,83.97
2018-10-16T10:40:25.036Z,90.70
2018-10-16T10:42:52.898Z,89.53
2018-10-16T10:45:20.952Z,84.00
2018-10-16T10:47:48.990Z,90.60
2018-10-16T10:50:17.166Z,90.17
2018-10-16T10:52:47.131Z,85.37
2018-10-16T10:55:14.988Z,89.27
2018-10-16T10:57:42.874Z,83.80
2018-10-16T11:00:11.987Z,82.73
2018-10-16T11:02:40.577Z,91.03
2018-10-16T11:05:09.656Z,91.83
2018-10-16T11:07:37.527Z,87.93
2018-10-16T11:10:05.774Z,84.10
2018-10-16T11:12:33.639Z,96.93
2018-10-16T11:15:01.528Z,84.93
2018-10-16T11:17:29.400Z,83.07
2018-10-16T11:19:57.251Z,85.33
2018-10-16T11:22:25.112Z,89.87
2018-10-16T11:24:52.972Z,105.27
2018-10-16T11:27:20.844Z,179.83
2018-10-16T11:29:48.723Z,135.80
2018-10-16T11:32:16.626Z,166.77
2018-10-16T11:34:44.455Z,121.57
2018-10-16T11:37:12.319Z,102.03
2018-10-16T11:39:40.201Z,235.87
2018-10-16T11:42:08.063Z,211.30
2018-10-16T11:44:35.935Z,129.43
2018-10-16T11:47:03.803Z,223.63
2018-10-16T11:49:31.658Z,97.40
2018-10-16T11:51:59.546Z,98.67
2018-10-16T11:54:27.378Z,178.53
2018-10-16T11:56:55.238Z,148.40
2018-10-16T11:59:23.140Z,97.30
2018-10-16T12:01:50.990Z,91.37
2018-10-16T12:04:18.835Z,86.70
2018-10-16T12:06:46.692Z,88.30
2018-10-16T12:09:14.558Z,86.63
2018-10-16T12:11:42.412Z,83.60
2018-10-16T12:14:10.332Z,84.43
2018-10-16T12:16:48.800Z,86.23
2018-10-16T12:19:22.367Z,83.23
2018-10-16T12:21:50.222Z,85.40
2018-10-16T12:24:18.085Z,93.93
2018-10-16T12:26:45.939Z,84.30
2018-10-16T12:29:13.809Z,89.60
2018-10-16T12:31:41.660Z,85.60
2018-10-16T12:34:09.504Z,94.10
2018-10-16T12:36:37.534Z,86.10
2018-10-16T12:39:06.988Z,90.00
2018-10-16T12:41:34.838Z,89.63
2018-10-16T12:44:02.703Z,83.80
2018-10-16T12:46:30.546Z,94.33
2018-10-16T12:48:58.452Z,90.60
2018-10-16T12:51:26.296Z,81.43
2018-10-16T12:53:54.148Z,88.77
2018-10-16T12:56:21.988Z,89.73
2018-10-16T12:58:49.829Z,81.80
2018-10-16T13:01:17.662Z,80.13
2018-10-16T13:03:45.580Z,82.20
2018-10-16T13:06:13.471Z,89.60
2018-10-16T13:08:41.316Z,85.93
2018-10-16T13:11:09.185Z,85.63
2018-10-16T13:13:37.032Z,88.60
2018-10-16T13:16:04.928Z,79.23
2018-10-16T13:18:32.733Z,80.80
2018-10-16T13:21:00.596Z,88.73
2018-10-16T13:23:28.441Z,85.37
2018-10-16T13:25:56.291Z,81.47
2018-10-16T13:28:24.144Z,79.90
2018-10-16T13:30:51.999Z,82.80
2018-10-16T13:33:19.855Z,87.93
2018-10-16T13:35:47.711Z,89.03
2018-10-16T13:38:15.581Z,82.63
2018-10-16T13:40:43.430Z,84.03
2018-10-16T13:43:11.295Z,80.60
2018-10-16T13:45:39.155Z,104.17
2018-10-16T13:48:07.005Z,86.13
2018-10-16T13:50:34.885Z,86.97
2018-10-16T13:53:02.751Z,106.77
2018-10-16T13:55:30.625Z,128.67
2018-10-16T13:57:58.544Z,141.90
2018-10-16T14:00:26.367Z,105.27
2018-10-16T14:02:54.227Z,82.70
2018-10-16T14:05:22.098Z,84.50
2018-10-16T14:07:49.953Z,96.70
2018-10-16T14:10:18.190Z,99.20
2018-10-16T14:12:47.080Z,473.53
2018-10-16T14:15:15.473Z,591.07
2018-10-16T14:17:43.332Z,586.97
2018-10-16T14:20:11.510Z,713.33
2018-10-16T14:22:40.420Z,746.17
2018-10-16T14:25:09.195Z,750.03
2018-10-16T14:27:37.347Z,304.20
2018-10-16T14:30:05.908Z,267.30
2018-10-16T14:32:33.760Z,490.13
2018-10-16T14:35:01.636Z,452.83
2018-10-16T14:37:29.571Z,897.07
2018-10-16T14:39:57.488Z,803.03
2018-10-16T14:42:25.327Z,722.40
2018-10-16T14:44:53.193Z,883.10
2018-10-16T14:47:21.059Z,609.10
2018-10-16T14:49:48.923Z,586.47
2018-10-16T14:52:16.864Z,489.30
2018-10-16T14:54:44.743Z,557.30
2018-10-16T14:57:12.737Z,655.07
2018-10-16T14:59:40.934Z,591.53
2018-10-16T15:02:09.023Z,779.83
2018-10-16T15:04:37.220Z,792.03
2018-10-16T15:07:05.191Z,737.40
2018-10-16T15:09:33.138Z,1999.90
2018-10-16T15:12:01.043Z,1999.90
2018-10-16T15:14:28.906Z,1999.90
2018-10-16T15:16:56.924Z,1999.90
2018-10-16T15:19:24.832Z,1999.90
2018-10-16T15:21:52.709Z,1999.90
2018-10-16T15:24:21.996Z,1999.90
2018-10-16T15:26:49.925Z,1999.90
2018-10-16T15:29:17.797Z,1999.90
2018-10-16T15:31:45.671Z,1999.90
2018-10-16T15:34:13.588Z,1999.90
2018-10-16T15:36:41.481Z,1999.90
2018-10-16T15:39:10.602Z,1999.90
2018-10-16T15:41:38.666Z,1999.90
2018-10-16T15:44:07.672Z,1999.90
2018-10-16T15:46:36.050Z,1990.80
2018-10-16T15:54:14.642Z,1999.90
2018-10-16T15:56:42.472Z,1784.00
2018-10-16T15:59:10.318Z,1778.43
2018-10-16T16:01:38.216Z,1611.33
2018-10-16T16:04:06.112Z,1730.77
2018-10-16T16:06:33.933Z,1641.63
2018-10-16T16:09:01.788Z,1673.50
2018-10-16T16:11:29.679Z,1719.87
2018-10-16T16:13:57.557Z,1617.73
2018-10-16T16:16:25.505Z,1719.63
2018-10-16T16:18:53.371Z,1590.23
2018-10-16T16:21:21.222Z,1562.63
2018-10-16T16:23:49.107Z,1747.80
2018-10-16T16:26:17.022Z,1929.97
2018-10-16T16:28:44.981Z,1945.43
2018-10-16T16:31:12.911Z,1999.90
2018-10-16T16:33:40.795Z,1999.90
2018-10-16T16:36:08.747Z,1999.90
2018-10-16T16:38:36.536Z,1999.90
2018-10-16T16:41:04.455Z,1999.90
2018-10-16T16:43:32.456Z,1999.90
2018-10-16T16:46:00.298Z,1958.43
2018-10-16T16:48:28.093Z,1999.90
2018-10-16T16:50:56.053Z,1964.00
2018-10-16T16:53:23.928Z,1999.90
2018-10-16T16:55:51.829Z,1961.63
2018-10-16T16:58:19.755Z,1942.67
2018-10-16T17:00:47.604Z,1888.10
2018-10-16T17:03:15.506Z,1877.93
2018-10-16T17:05:43.471Z,1813.63
2018-10-16T17:08:11.383Z,1836.33
2018-10-16T17:10:39.646Z,1584.13
2018-10-16T17:13:07.500Z,1762.27
2018-10-16T17:15:35.351Z,1772.13
2018-10-16T17:18:03.215Z,1700.80
2018-10-16T17:20:31.068Z,1597.40
2018-10-16T17:22:58.927Z,1783.30
2018-10-16T17:25:27.049Z,1838.57
2018-10-16T17:27:54.712Z,1744.67
2018-10-16T17:30:22.531Z,1708.87
2018-10-16T17:32:50.411Z,1722.87
2018-10-16T17:35:18.268Z,1544.33
2018-10-16T17:37:46.147Z,1627.80
2018-10-16T17:40:15.560Z,1723.43
2018-10-16T17:42:43.596Z,1642.90
2018-10-16T17:45:12.987Z,1615.90
2018-10-16T17:47:40.881Z,1502.77
2018-10-16T17:50:11.034Z,1495.20
2018-10-16T17:52:39.149Z,1444.43
2018-10-16T17:55:07.544Z,1489.93
2018-10-16T17:57:35.601Z,1464.83
2018-10-16T18:00:03.725Z,1581.13
2018-10-16T18:02:31.659Z,1527.53
2018-10-16T18:04:59.517Z,1612.40
2018-10-16T18:07:27.428Z,1542.07
2018-10-16T18:09:55.276Z,1645.53
2018-10-16T18:12:23.135Z,1554.03
2018-10-16T18:14:51.033Z,1556.83
2018-10-16T18:17:18.890Z,1513.30
2018-10-16T18:19:46.743Z,1507.97
2018-10-16T18:22:14.594Z,1525.30
2018-10-16T18:24:42.475Z,1470.70
2018-10-16T18:27:10.457Z,1524.93
2018-10-16T18:29:38.466Z,1564.80
2018-10-16T18:32:06.283Z,1247.20
2018-10-16T18:34:34.237Z,1276.70
2018-10-16T18:37:02.081Z,1288.97
2018-10-16T18:39:29.969Z,1241.07
2018-10-16T18:41:57.876Z,1532.67
2018-10-16T18:44:25.817Z,1399.03
2018-10-16T18:46:53.617Z,1521.17
2018-10-16T18:49:21.471Z,1514.50
2018-10-16T18:51:49.346Z,1501.17
2018-10-16T18:54:17.265Z,1345.77
2018-10-16T18:56:45.063Z,1505.50
2018-10-16T18:59:12.919Z,1443.47
2018-10-16T19:01:40.764Z,1438.63
2018-10-16T19:04:09.020Z,1430.57
2018-10-16T19:06:36.868Z,1534.53
2018-10-16T19:09:06.838Z,1331.53
2018-10-16T19:11:34.679Z,1402.63
2018-10-16T19:14:02.621Z,1357.87
2018-10-16T19:16:30.399Z,1399.40
2018-10-16T19:18:58.248Z,1374.63
2018-10-16T19:21:26.083Z,1435.50
2018-10-16T19:23:54.025Z,1381.23
2018-10-16T19:26:21.880Z,1483.77
2018-10-16T19:28:49.744Z,1505.70
2018-10-16T19:31:17.607Z,1472.67
2018-10-16T19:33:45.916Z,1611.83
2018-10-16T19:36:13.832Z,1532.00
2018-10-16T19:38:41.690Z,1573.17
2018-10-16T19:41:09.611Z,1553.23
2018-10-16T19:43:37.466Z,1578.27
2018-10-16T19:46:05.326Z,1527.43
2018-10-16T19:48:33.215Z,1582.20
2018-10-16T19:51:01.127Z,1605.53
2018-10-16T19:53:29.115Z,1500.47
2018-10-16T19:55:57.001Z,1516.43
2018-10-16T19:58:24.859Z,1425.90
2018-10-16T20:00:52.793Z,1508.43
2018-10-16T20:03:20.732Z,1532.27
2018-10-16T20:05:48.591Z,1426.57
2018-10-16T20:08:16.871Z,1536.37
2018-10-16T20:10:44.985Z,1451.90
2018-10-16T20:13:12.818Z,1482.50
2018-10-16T20:15:40.741Z,1494.03
2018-10-16T20:18:08.547Z,1628.53
2018-10-16T20:20:36.478Z,1684.57
2018-10-16T20:23:04.411Z,1682.27
2018-10-16T20:25:32.287Z,1648.57
2018-10-16T20:28:00.136Z,1735.83
2018-10-16T20:30:28.010Z,1710.20
2018-10-16T20:32:55.936Z,1662.17
2018-10-16T20:35:23.815Z,1610.07
2018-10-16T20:37:51.673Z,1669.23
2018-10-16T20:40:19.626Z,1624.53
2018-10-16T20:42:47.483Z,1659.70
2018-10-16T20:45:15.354Z,1645.10
2018-10-16T20:50:17.698Z,1726.83
2018-10-16T20:52:45.558Z,1685.87
2018-10-16T20:55:13.609Z,1490.63
2018-10-16T20:57:41.325Z,1545.40
2018-10-16T21:00:09.335Z,1864.40
2018-10-16T21:02:37.654Z,1914.13
2018-10-16T21:05:06.038Z,1733.80
2018-10-16T21:07:33.791Z,1639.37
2018-10-16T21:10:01.728Z,1653.63
2018-10-16T21:12:29.623Z,1628.03
2018-10-16T21:14:57.475Z,1653.20
2018-10-16T21:17:25.338Z,1765.57
2018-10-16T21:19:53.295Z,1683.33
2018-10-16T21:22:21.137Z,1999.90
2018-10-16T21:24:48.986Z,1999.90
2018-10-16T21:27:16.837Z,1817.90
2018-10-16T21:29:44.685Z,1858.73
2018-10-16T21:32:13.051Z,1715.60
2018-10-16T21:34:40.894Z,1509.63
2018-10-16T21:37:08.807Z,1584.40
2018-10-16T21:39:36.589Z,1622.50
2018-10-16T21:42:04.453Z,1606.17
2018-10-16T21:44:32.296Z,1589.33
2018-10-16T21:47:00.180Z,1770.03
2018-10-16T21:49:28.002Z,1848.40
2018-10-16T21:51:55.849Z,1817.80
2018-10-16T21:54:23.685Z,1697.97
2018-10-16T21:56:51.537Z,1799.13
2018-10-16T21:59:19.435Z,1801.07
2018-10-16T22:01:52.854Z,1856.70
2018-10-16T22:04:20.690Z,1744.63
2018-10-16T22:06:48.742Z,1723.13
2018-10-16T22:09:16.583Z,1722.13
2018-10-16T22:11:44.429Z,1663.87
2018-10-16T22:14:12.299Z,1688.37
2018-10-16T22:16:40.158Z,1979.87
2018-10-16T22:19:08.300Z,1999.90
2018-10-16T22:21:36.134Z,1999.90
2018-10-16T22:24:03.986Z,1977.70
2018-10-16T22:26:31.924Z,1999.90
2018-10-16T22:29:00.210Z,1952.10
2018-10-16T22:31:28.286Z,1987.03
2018-10-16T22:33:56.170Z,1999.90
2018-10-16T22:36:24.274Z,1999.90
2018-10-16T22:38:52.110Z,1967.40
2018-10-16T22:41:20.202Z,1947.87
2018-10-16T22:43:48.054Z,1920.83
2018-10-16T22:46:15.913Z,1836.87
2018-10-16T22:48:43.755Z,1729.83
2018-10-16T22:51:11.615Z,1594.83
2018-10-16T22:53:39.456Z,1610.80
2018-10-16T22:56:07.815Z,1662.03
2018-10-16T22:58:35.697Z,1582.87
2018-10-16T23:01:03.590Z,1680.73
2018-10-16T23:03:31.437Z,1745.77
2018-10-16T23:05:59.288Z,1999.90
2018-10-16T23:08:27.139Z,1999.90
2018-10-16T23:10:55.008Z,1973.00
2018-10-16T23:13:22.854Z,1829.67
2018-10-16T23:15:50.699Z,1901.00
2018-10-16T23:18:18.557Z,1798.33
2018-10-16T23:20:46.406Z,1575.93
2018-10-16T23:23:14.364Z,1667.30
2018-10-16T23:25:42.185Z,1766.47
2018-10-16T23:28:10.042Z,1684.33
2018-10-16T23:30:37.901Z,1525.77
2018-10-16T23:33:05.755Z,1796.53
2018-10-16T23:35:33.602Z,1999.90
2018-10-16T23:38:01.458Z,1999.90
2018-10-16T23:40:29.311Z,1909.70
2018-10-16T23:42:57.184Z,1995.93
2018-10-16T23:45:25.029Z,1989.70
2018-10-16T23:47:52.886Z,1999.90
2018-10-16T23:50:20.721Z,1999.90
2018-10-16T23:52:48.577Z,1999.90
2018-10-16T23:55:16.483Z,1999.90
2018-10-16T23:57:44.298Z,1999.90
